createdAt,value
2022-10-14T00:01:57.877Z,10.16
2022-10-14T00:04:24.417Z,10.15
2022-10-14T00:06:51.004Z,10.13
2022-10-14T00:09:17.399Z,10.12
2022-10-14T00:11:43.863Z,10.18
2022-10-14T00:14:14.437Z,10.13
2022-10-14T00:16:42.809Z,10.17
2022-10-14T00:19:09.842Z,10.10
2022-10-14T00:21:38.708Z,10.08
2022-10-14T00:24:05.687Z,10.14
2022-10-14T00:26:35.187Z,10.17
2022-10-14T00:29:03.431Z,10.21
2022-10-14T00:31:30.338Z,10.27
2022-10-14T00:33:56.928Z,10.45
2022-10-14T00:36:24.589Z,10.58
2022-10-14T00:38:52.036Z,10.63
2022-10-14T00:41:24.910Z,10.73
2022-10-14T00:43:57.404Z,10.75
2022-10-14T00:46:25.723Z,10.77
2022-10-14T00:48:52.637Z,10.77
2022-10-14T00:51:20.079Z,10.76
2022-10-14T00:53:46.696Z,10.82
2022-10-14T00:56:16.282Z,10.85
2022-10-14T00:58:43.999Z,10.90
2022-10-14T01:01:11.961Z,10.93
2022-10-14T01:03:40.494Z,10.99
2022-10-14T01:06:32.041Z,11.06
2022-10-14T01:09:07.862Z,11.06
2022-10-14T01:11:40.650Z,11.13
2022-10-14T01:14:24.961Z,11.18
2022-10-14T01:16:57.320Z,11.23
2022-10-14T01:19:50.755Z,11.19
2022-10-14T01:22:25.814Z,11.20
2022-10-14T01:25:13.080Z,11.21
2022-10-14T01:27:49.505Z,11.27
2022-10-14T01:30:24.343Z,11.29
2022-10-14T01:32:51.249Z,11.27
2022-10-14T01:35:37.987Z,11.30
2022-10-14T01:38:11.496Z,11.34
2022-10-14T01:40:50.119Z,11.32
2022-10-14T01:43:18.137Z,11.32
2022-10-14T01:45:46.788Z,11.38
2022-10-14T01:48:15.382Z,11.40
2022-10-14T01:50:43.729Z,11.41
2022-10-14T01:53:34.392Z,11.38
2022-10-14T01:56:02.119Z,11.43
2022-10-14T01:58:31.582Z,11.39
2022-10-14T02:00:58.148Z,11.43
2022-10-14T02:03:24.795Z,11.39
2022-10-14T02:06:00.045Z,11.39
2022-10-14T02:08:41.985Z,11.40
2022-10-14T02:11:15.698Z,11.39
2022-10-14T02:14:03.847Z,11.44
2022-10-14T02:16:54.521Z,11.45
2022-10-14T02:19:54.206Z,11.42
2022-10-14T02:22:31.677Z,11.38
2022-10-14T02:25:04.561Z,11.33
2022-10-14T02:27:31.680Z,11.51
2022-10-14T02:29:59.568Z,11.50
2022-10-14T02:32:28.096Z,11.38
2022-10-14T02:34:57.885Z,11.43
2022-10-14T02:37:25.703Z,11.41
2022-10-14T02:39:56.848Z,11.36
2022-10-14T02:42:23.575Z,11.43
2022-10-14T02:44:55.027Z,11.47
2022-10-14T02:47:22.391Z,11.53
2022-10-14T02:49:48.855Z,11.50
2022-10-14T02:52:15.302Z,11.56
2022-10-14T02:54:41.755Z,11.53
2022-10-14T02:57:09.983Z,11.55
2022-10-14T02:59:36.636Z,11.59
2022-10-14T03:02:03.611Z,11.58
2022-10-14T03:04:30.063Z,11.68
2022-10-14T03:06:56.545Z,11.69
2022-10-14T03:09:22.967Z,11.63
2022-10-14T03:11:50.836Z,11.70
2022-10-14T03:14:17.285Z,11.62
2022-10-14T03:16:43.660Z,11.69
2022-10-14T03:19:10.167Z,11.65
2022-10-14T03:21:40.795Z,11.66
2022-10-14T03:24:08.777Z,11.66
2022-10-14T03:26:35.249Z,11.67
2022-10-14T03:29:01.663Z,11.69
2022-10-14T03:31:28.138Z,11.68
2022-10-14T03:33:54.603Z,11.69
2022-10-14T03:36:21.082Z,11.66
2022-10-14T03:38:47.528Z,11.66
2022-10-14T03:41:14.051Z,11.69
2022-10-14T03:43:40.481Z,11.68
2022-10-14T03:46:06.951Z,11.76
2022-10-14T03:48:33.429Z,11.74
2022-10-14T03:50:59.843Z,11.72
2022-10-14T03:53:26.338Z,11.73
2022-10-14T03:55:52.772Z,11.72
2022-10-14T03:58:19.182Z,11.72
2022-10-14T04:00:45.639Z,11.67
2022-10-14T04:03:12.065Z,11.69
2022-10-14T04:05:39.675Z,11.67
2022-10-14T04:08:06.360Z,11.70
2022-10-14T04:10:32.761Z,11.74
2022-10-14T04:12:59.226Z,11.66
2022-10-14T04:15:25.707Z,11.72
2022-10-14T04:17:52.146Z,11.75
2022-10-14T04:20:18.772Z,11.71
2022-10-14T04:22:45.260Z,11.71
2022-10-14T04:25:12.350Z,11.75
2022-10-14T04:27:38.784Z,11.74
2022-10-14T04:30:06.096Z,11.76
2022-10-14T04:32:32.626Z,11.77
2022-10-14T04:34:59.046Z,11.78
2022-10-14T04:37:25.591Z,11.81
2022-10-14T04:39:52.332Z,11.79
2022-10-14T04:42:20.300Z,11.75
2022-10-14T04:44:46.890Z,11.76
2022-10-14T04:47:13.401Z,11.77
2022-10-14T04:49:39.791Z,11.74
2022-10-14T04:52:06.574Z,11.77
2022-10-14T04:54:33.300Z,11.77
2022-10-14T04:56:59.951Z,11.75
2022-10-14T04:59:26.500Z,11.79
2022-10-14T05:01:53.157Z,11.78
2022-10-14T05:04:19.931Z,11.72
2022-10-14T05:06:46.346Z,11.74
2022-10-14T05:09:12.743Z,11.72
2022-10-14T05:11:41.600Z,11.69
2022-10-14T05:14:08.175Z,11.69
2022-10-14T05:16:34.775Z,11.69
2022-10-14T05:19:03.603Z,11.69
2022-10-14T05:21:36.465Z,11.69
2022-10-14T05:24:03.120Z,11.64
2022-10-14T05:26:29.528Z,11.62
2022-10-14T05:28:56.032Z,11.65
2022-10-14T05:31:22.504Z,11.72
2022-10-14T05:33:48.879Z,11.67
2022-10-14T05:36:15.285Z,11.71
2022-10-14T05:38:41.713Z,11.75
2022-10-14T05:41:09.498Z,11.74
2022-10-14T05:43:35.988Z,11.75
2022-10-14T05:46:02.397Z,11.79
2022-10-14T05:48:29.009Z,11.77
2022-10-14T05:50:55.441Z,11.79
2022-10-14T05:53:21.913Z,11.79
2022-10-14T05:55:49.396Z,11.90
2022-10-14T05:58:15.926Z,11.81
2022-10-14T06:00:42.308Z,11.87
2022-10-14T06:03:11.603Z,12.00
2022-10-14T06:05:38.548Z,11.95
2022-10-14T06:08:05.348Z,12.07
2022-10-14T06:10:31.768Z,12.09
2022-10-14T06:12:58.344Z,11.95
2022-10-14T06:15:24.744Z,12.02
2022-10-14T06:17:51.156Z,12.10
2022-10-14T06:20:17.563Z,12.13
2022-10-14T06:22:44.222Z,12.25
2022-10-14T06:25:10.862Z,12.35
2022-10-14T06:27:37.433Z,12.50
2022-10-14T06:30:04.171Z,12.54
2022-10-14T06:32:30.587Z,12.61
2022-10-14T06:34:56.962Z,12.49
2022-10-14T06:37:23.589Z,12.67
2022-10-14T06:39:49.980Z,12.63
2022-10-14T06:42:16.436Z,12.81
2022-10-14T06:44:42.790Z,12.93
2022-10-14T06:47:09.193Z,12.92
2022-10-14T06:49:35.737Z,12.81
2022-10-14T06:52:02.190Z,12.85
2022-10-14T06:54:28.670Z,12.87
2022-10-14T06:56:55.082Z,12.93
2022-10-14T06:59:21.546Z,12.82
2022-10-14T07:01:50.167Z,12.78
2022-10-14T07:04:16.726Z,12.71
2022-10-14T07:06:43.120Z,12.83
2022-10-14T07:09:09.504Z,13.18
2022-10-14T07:11:35.916Z,13.19
2022-10-14T07:14:04.545Z,13.44
2022-10-14T07:16:31.065Z,13.21
2022-10-14T07:18:57.593Z,13.44
2022-10-14T07:21:24.040Z,13.55
2022-10-14T07:23:50.765Z,13.62
2022-10-14T07:26:17.457Z,13.76
2022-10-14T07:28:44.127Z,13.75
2022-10-14T07:31:11.189Z,13.81
2022-10-14T07:33:39.353Z,13.92
2022-10-14T07:36:09.919Z,13.91
2022-10-14T07:38:37.130Z,14.01
2022-10-14T07:41:16.821Z,14.20
2022-10-14T07:43:44.776Z,14.40
2022-10-14T07:46:12.940Z,14.72
2022-10-14T07:48:55.924Z,14.70
2022-10-14T07:51:23.247Z,14.59
2022-10-14T07:53:50.238Z,14.77
2022-10-14T07:56:16.702Z,14.76
2022-10-14T07:58:44.599Z,14.99
2022-10-14T08:01:18.606Z,15.06
2022-10-14T08:03:46.467Z,15.16
2022-10-14T08:06:14.055Z,14.95
2022-10-14T08:08:41.383Z,14.84
2022-10-14T08:11:11.705Z,15.14
2022-10-14T08:13:41.929Z,15.12
2022-10-14T08:16:26.207Z,15.43
2022-10-14T08:18:54.969Z,15.32
2022-10-14T08:21:21.487Z,15.47
2022-10-14T08:23:48.047Z,15.47
2022-10-14T08:26:27.107Z,15.59
2022-10-14T08:28:53.834Z,15.59
2022-10-14T08:31:21.176Z,15.50
2022-10-14T08:33:47.705Z,15.73
2022-10-14T08:36:14.931Z,15.79
2022-10-14T08:38:42.620Z,15.67
2022-10-14T08:41:12.112Z,15.59
2022-10-14T08:43:42.013Z,15.67
2022-10-14T08:46:23.236Z,15.62
2022-10-14T08:48:51.394Z,15.58
2022-10-14T08:51:19.666Z,15.70
2022-10-14T08:53:55.928Z,15.56
2022-10-14T08:56:23.612Z,15.60
2022-10-14T08:58:51.760Z,15.54
2022-10-14T09:01:34.424Z,15.61
2022-10-14T09:04:04.195Z,15.62
2022-10-14T09:06:32.679Z,15.93
2022-10-14T09:09:09.320Z,16.05
2022-10-14T09:11:40.223Z,16.32
2022-10-14T09:14:09.082Z,16.50
2022-10-14T09:16:38.940Z,16.75
2022-10-14T09:19:12.233Z,17.02
2022-10-14T09:21:52.525Z,17.38
2022-10-14T09:24:29.065Z,17.58
2022-10-14T09:27:03.480Z,17.71
2022-10-14T09:29:59.326Z,17.96
2022-10-14T09:32:36.713Z,18.02
2022-10-14T09:35:03.974Z,17.71
2022-10-14T09:37:32.931Z,17.72
2022-10-14T09:40:01.858Z,17.55
2022-10-14T09:43:07.447Z,17.62
2022-10-14T09:46:03.477Z,17.76
2022-10-14T09:48:34.408Z,18.37
2022-10-14T09:51:03.795Z,19.45
2022-10-14T09:53:30.200Z,20.46
2022-10-14T09:55:59.315Z,20.15
2022-10-14T09:58:34.073Z,20.45
2022-10-14T10:01:01.463Z,20.31
2022-10-14T10:03:32.679Z,20.70
2022-10-14T10:06:06.606Z,20.18
2022-10-14T10:08:35.353Z,20.10
2022-10-14T10:11:10.607Z,20.91
2022-10-14T10:13:45.016Z,22.37
2022-10-14T10:16:38.146Z,23.41
2022-10-14T10:19:34.348Z,22.34
2022-10-14T10:24:47.306Z,21.55
2022-10-14T10:27:25.081Z,21.09
2022-10-14T10:29:52.172Z,20.68
2022-10-14T10:32:44.783Z,20.90
2022-10-14T10:35:36.945Z,21.17
2022-10-14T10:38:15.840Z,20.52
2022-10-14T10:40:48.145Z,20.62
2022-10-14T10:43:50.357Z,20.66
2022-10-14T10:46:50.867Z,20.20
2022-10-14T10:49:41.041Z,19.62
2022-10-14T10:52:24.184Z,19.31
2022-10-14T10:54:56.578Z,18.99
2022-10-14T10:57:49.079Z,19.01
2022-10-14T11:00:20.884Z,18.59
2022-10-14T11:03:02.203Z,18.89
2022-10-14T11:05:38.165Z,19.00
2022-10-14T11:08:39.944Z,18.83
2022-10-14T11:11:35.155Z,18.74
2022-10-14T11:14:06.792Z,18.55
2022-10-14T11:16:48.366Z,18.89
2022-10-14T11:19:48.869Z,18.74
2022-10-14T11:22:38.849Z,18.84
2022-10-14T11:25:44.391Z,18.64
2022-10-14T11:28:38.263Z,18.52
2022-10-14T11:31:27.710Z,18.35
2022-10-14T11:34:07.812Z,18.41
2022-10-14T11:37:05.230Z,18.37
2022-10-14T11:39:50.187Z,18.36
2022-10-14T11:42:27.082Z,18.52
2022-10-14T11:45:20.483Z,18.51
2022-10-14T11:47:51.194Z,18.52
2022-10-14T11:50:26.699Z,18.49
2022-10-14T11:52:58.261Z,18.40
2022-10-14T11:55:29.073Z,18.90
2022-10-14T11:58:15.049Z,19.22
2022-10-14T12:00:44.731Z,19.48
2022-10-14T12:03:45.626Z,19.64
2022-10-14T12:06:19.373Z,19.65
2022-10-14T12:09:51.720Z,19.86
2022-10-14T12:12:22.471Z,20.13
2022-10-14T12:14:51.772Z,20.03
2022-10-14T12:17:24.938Z,19.86
2022-10-14T12:19:52.041Z,19.95
2022-10-14T12:22:24.531Z,19.04
2022-10-14T12:24:57.090Z,18.86
2022-10-14T12:27:26.032Z,18.78
2022-10-14T12:29:53.022Z,18.72
2022-10-14T12:32:21.782Z,18.78
2022-10-14T12:34:58.768Z,18.82
2022-10-14T12:37:28.906Z,19.00
2022-10-14T12:40:05.841Z,19.07
2022-10-14T12:42:37.972Z,19.22
2022-10-14T12:45:20.628Z,19.10
2022-10-14T12:47:47.471Z,19.11
2022-10-14T12:50:13.909Z,19.28
2022-10-14T12:52:41.478Z,19.53
2022-10-14T12:55:13.674Z,19.66
2022-10-14T12:57:42.344Z,19.55
2022-10-14T13:00:21.144Z,19.33
2022-10-14T13:02:48.191Z,19.52
2022-10-14T13:05:34.821Z,19.50
2022-10-14T13:08:20.253Z,19.65
2022-10-14T13:10:47.930Z,19.48
2022-10-14T13:13:52.887Z,19.45
2022-10-14T13:16:25.403Z,19.73
2022-10-14T13:18:53.236Z,19.60
2022-10-14T13:21:27.589Z,19.45
2022-10-14T13:23:55.181Z,19.45
2022-10-14T13:26:27.780Z,19.37
2022-10-14T13:29:04.302Z,18.96
2022-10-14T13:31:38.504Z,18.65
2022-10-14T13:34:14.376Z,18.39
2022-10-14T13:36:56.962Z,18.43
2022-10-14T13:39:23.557Z,18.24
2022-10-14T13:41:51.513Z,18.28
2022-10-14T13:44:21.793Z,18.26
2022-10-14T13:46:49.123Z,18.12
2022-10-14T13:49:18.373Z,18.02
2022-10-14T13:51:50.793Z,18.10
2022-10-14T13:54:18.616Z,17.94
2022-10-14T14:02:43.515Z,17.95
2022-10-14T14:05:15.078Z,17.92
2022-10-14T14:10:29.689Z,18.00
2022-10-14T14:12:56.246Z,17.91
2022-10-14T14:15:27.499Z,17.82
2022-10-14T14:17:54.338Z,17.84
2022-10-14T14:20:23.912Z,17.85
2022-10-14T14:22:50.609Z,17.94
2022-10-14T14:25:38.409Z,17.98
2022-10-14T14:28:15.117Z,17.85
2022-10-14T14:30:55.672Z,17.87
2022-10-14T14:33:29.675Z,17.73
2022-10-14T14:36:01.813Z,17.80
2022-10-14T14:38:36.308Z,17.75
2022-10-14T14:41:14.868Z,17.73
2022-10-14T14:43:47.305Z,17.57
2022-10-14T14:46:32.997Z,17.69
2022-10-14T14:48:59.925Z,17.55
2022-10-14T14:51:36.776Z,17.64
2022-10-14T14:54:04.306Z,17.64
2022-10-14T14:56:40.536Z,17.46
2022-10-14T14:59:21.699Z,17.43
2022-10-14T15:01:48.679Z,17.44
2022-10-14T15:04:20.727Z,17.25
2022-10-14T15:07:06.668Z,17.18
2022-10-14T15:09:54.803Z,17.16
2022-10-14T15:12:24.077Z,17.29
2022-10-14T15:14:54.619Z,17.36
2022-10-14T15:17:39.458Z,17.26
2022-10-14T15:20:17.840Z,17.13
2022-10-14T15:22:46.976Z,17.16
2022-10-14T15:25:24.671Z,17.05
2022-10-14T15:27:52.737Z,17.04
2022-10-14T15:30:23.475Z,17.03
2022-10-14T15:32:56.609Z,17.00
2022-10-14T15:35:24.055Z,17.01
2022-10-14T15:37:50.752Z,17.01
2022-10-14T15:40:23.704Z,16.90
2022-10-14T15:42:50.447Z,16.95
2022-10-14T15:45:17.746Z,16.99
2022-10-14T15:47:44.411Z,16.96
2022-10-14T15:50:23.187Z,16.89
2022-10-14T15:52:53.358Z,16.71
2022-10-14T15:55:22.458Z,16.66
2022-10-14T15:57:50.207Z,16.69
2022-10-14T16:00:19.001Z,16.78
2022-10-14T16:02:47.412Z,16.66
2022-10-14T16:05:19.697Z,16.55
2022-10-14T16:07:48.298Z,16.44
2022-10-14T16:10:18.791Z,16.41
2022-10-14T16:12:46.810Z,16.41
2022-10-14T16:15:29.122Z,16.29
2022-10-14T16:17:55.660Z,16.35
2022-10-14T16:20:22.504Z,16.51
2022-10-14T16:22:49.017Z,16.42
2022-10-14T16:25:20.571Z,16.34
2022-10-14T16:27:46.943Z,16.35
2022-10-14T16:30:13.464Z,16.35
2022-10-14T16:32:39.872Z,16.27
2022-10-14T16:35:06.971Z,16.21
2022-10-14T16:37:33.523Z,16.23
2022-10-14T16:40:00.048Z,16.27
2022-10-14T16:42:26.805Z,16.22
2022-10-14T16:44:53.178Z,16.07
2022-10-14T16:47:20.361Z,15.94
2022-10-14T16:49:49.173Z,15.94
2022-10-14T16:52:16.134Z,15.90
2022-10-14T16:54:42.559Z,15.71
2022-10-14T16:57:09.051Z,15.67
2022-10-14T16:59:35.495Z,15.69
2022-10-14T17:02:03.991Z,15.66
2022-10-14T17:04:30.438Z,15.63
2022-10-14T17:06:56.949Z,15.56
2022-10-14T17:11:54.802Z,15.50
2022-10-14T17:14:24.247Z,15.42
2022-10-14T17:16:52.363Z,15.42
2022-10-14T17:19:19.696Z,15.37
2022-10-14T17:21:47.209Z,15.24
2022-10-14T17:24:16.839Z,15.27
2022-10-14T17:26:44.887Z,15.26
2022-10-14T17:29:11.378Z,15.21
2022-10-14T17:31:38.914Z,15.12
2022-10-14T17:34:05.434Z,15.14
2022-10-14T17:36:31.869Z,15.12
2022-10-14T17:38:59.116Z,15.03
2022-10-14T17:41:27.848Z,15.04
2022-10-14T17:43:55.602Z,15.03
2022-10-14T17:46:24.686Z,15.09
2022-10-14T17:48:53.818Z,15.12
2022-10-14T17:51:25.397Z,15.13
2022-10-14T17:53:58.139Z,15.14
2022-10-14T17:56:25.320Z,15.10
2022-10-14T17:58:56.958Z,15.03
2022-10-14T18:01:36.931Z,15.07
2022-10-14T18:04:10.487Z,15.00
2022-10-14T18:06:37.293Z,15.01
2022-10-14T18:09:06.745Z,14.86
2022-10-14T18:11:49.896Z,14.97
2022-10-14T18:14:23.288Z,14.92
2022-10-14T18:16:52.322Z,14.91
2022-10-14T18:19:19.814Z,14.99
2022-10-14T18:21:46.607Z,15.05
2022-10-14T18:24:13.312Z,14.91
2022-10-14T18:26:40.991Z,14.91
2022-10-14T18:29:08.541Z,14.84
2022-10-14T18:31:37.165Z,14.81
2022-10-14T18:34:03.768Z,14.84
2022-10-14T18:36:32.893Z,14.79
2022-10-14T18:39:01.987Z,14.69
2022-10-14T18:41:29.159Z,14.67
2022-10-14T18:43:58.009Z,14.57
2022-10-14T18:46:27.295Z,14.48
2022-10-14T18:48:56.043Z,14.40
2022-10-14T18:51:25.761Z,14.42
2022-10-14T18:53:55.054Z,14.50
2022-10-14T18:56:24.032Z,14.52
2022-10-14T18:58:55.470Z,14.48
2022-10-14T19:01:22.781Z,14.51
2022-10-14T19:03:50.988Z,14.53
2022-10-14T19:06:18.861Z,14.54
2022-10-14T19:08:46.078Z,14.54
2022-10-14T19:11:19.731Z,14.51
2022-10-14T19:13:47.550Z,14.48
2022-10-14T19:16:19.491Z,14.48
2022-10-14T19:18:52.392Z,14.48
2022-10-14T19:21:22.608Z,14.52
2022-10-14T19:23:49.789Z,14.48
2022-10-14T19:26:19.748Z,14.52
2022-10-14T19:28:46.830Z,14.54
2022-10-14T19:31:16.347Z,14.59
2022-10-14T19:33:47.076Z,14.48
2022-10-14T19:36:15.360Z,14.39
2022-10-14T19:38:46.286Z,14.60
2022-10-14T19:41:13.677Z,14.46
2022-10-14T19:43:40.058Z,14.38
2022-10-14T19:46:08.299Z,14.50
2022-10-14T19:48:35.175Z,14.41
2022-10-14T19:51:06.202Z,14.52
2022-10-14T19:53:33.653Z,14.65
2022-10-14T19:56:05.409Z,14.62
2022-10-14T19:58:32.388Z,14.54
2022-10-14T20:01:06.746Z,14.47
2022-10-14T20:03:33.218Z,14.59
2022-10-14T20:06:00.368Z,14.61
2022-10-14T20:08:28.480Z,14.57
2022-10-14T20:10:55.139Z,14.48
2022-10-14T20:13:22.409Z,14.54
2022-10-14T20:15:56.003Z,14.59
2022-10-14T20:18:23.265Z,14.49
2022-10-14T20:20:50.176Z,14.53
2022-10-14T20:23:17.830Z,14.59
2022-10-14T20:25:44.629Z,14.47
2022-10-14T20:28:12.348Z,14.42
2022-10-14T20:30:40.214Z,14.49
2022-10-14T20:33:07.001Z,14.62
2022-10-14T20:35:33.779Z,14.69
2022-10-14T20:38:00.241Z,14.71
2022-10-14T20:40:27.078Z,14.56
2022-10-14T20:42:53.558Z,14.53
2022-10-14T20:45:19.927Z,14.50
2022-10-14T20:47:53.366Z,14.32
2022-10-14T20:50:21.463Z,14.23
2022-10-14T20:52:48.699Z,14.39
2022-10-14T20:55:15.317Z,14.42
2022-10-14T20:57:41.685Z,14.35
2022-10-14T21:00:09.078Z,14.29
2022-10-14T21:02:35.859Z,14.36
2022-10-14T21:05:02.636Z,14.33
2022-10-14T21:07:29.049Z,14.36
2022-10-14T21:09:55.635Z,14.38
2022-10-14T21:12:22.396Z,14.47
2022-10-14T21:14:48.978Z,14.44
2022-10-14T21:17:15.503Z,14.46
2022-10-14T21:19:42.252Z,14.57
2022-10-14T21:22:09.150Z,14.61
2022-10-14T21:24:36.215Z,14.52
2022-10-14T21:27:05.717Z,14.50
2022-10-14T21:29:32.102Z,14.39
2022-10-14T21:31:58.795Z,14.39
2022-10-14T21:34:25.213Z,14.33
2022-10-14T21:36:51.654Z,14.28
2022-10-14T21:39:19.323Z,14.35
2022-10-14T21:41:46.057Z,14.23
2022-10-14T21:44:17.425Z,14.23
2022-10-14T21:46:43.963Z,14.25
2022-10-14T21:49:10.991Z,14.21
2022-10-14T21:51:38.014Z,14.21
2022-10-14T21:54:04.916Z,14.21
2022-10-14T21:56:31.399Z,14.16
2022-10-14T21:58:58.053Z,14.13
2022-10-14T22:01:29.679Z,14.05
2022-10-14T22:04:01.374Z,14.16
2022-10-14T22:06:28.411Z,14.11
2022-10-14T22:08:57.369Z,14.14
2022-10-14T22:11:26.704Z,14.20
2022-10-14T22:13:54.468Z,14.25
2022-10-14T22:16:21.351Z,14.23
2022-10-14T22:18:50.549Z,14.25
2022-10-14T22:21:18.968Z,14.22
2022-10-14T22:23:47.016Z,14.17
2022-10-14T22:26:15.826Z,14.18
2022-10-14T22:28:42.734Z,14.17
2022-10-14T22:31:14.630Z,14.19
2022-10-14T22:33:41.742Z,14.18
2022-10-14T22:36:19.522Z,14.27
2022-10-14T22:38:49.847Z,14.22
2022-10-14T22:41:17.554Z,14.29
2022-10-14T22:43:52.424Z,14.35
2022-10-14T22:46:21.202Z,14.28
2022-10-14T22:48:48.736Z,14.24
2022-10-14T22:51:17.242Z,14.21
2022-10-14T22:53:44.942Z,14.20
2022-10-14T22:56:14.632Z,14.16
2022-10-14T22:58:41.099Z,14.03
2022-10-14T23:01:13.511Z,13.99
2022-10-14T23:03:40.661Z,13.91
2022-10-14T23:06:09.709Z,13.91
2022-10-14T23:08:36.348Z,13.88
2022-10-14T23:11:03.984Z,13.83
2022-10-14T23:13:30.964Z,13.80
2022-10-14T23:16:00.430Z,13.80
2022-10-14T23:18:29.799Z,13.83
2022-10-14T23:20:56.750Z,13.87
2022-10-14T23:23:23.907Z,13.82
2022-10-14T23:25:51.224Z,13.85
2022-10-14T23:28:17.851Z,13.82
2022-10-14T23:30:45.171Z,13.81
2022-10-14T23:33:12.740Z,13.88
2022-10-14T23:35:39.370Z,13.76
2022-10-14T23:38:06.149Z,13.77
2022-10-14T23:40:32.878Z,13.77
2022-10-14T23:42:59.523Z,13.82
2022-10-14T23:45:26.030Z,13.79
2022-10-14T23:47:52.791Z,13.85
2022-10-14T23:50:19.407Z,13.80
2022-10-14T23:52:45.990Z,13.84
2022-10-14T23:55:13.268Z,13.85
2022-10-14T23:57:40.383Z,13.82
